CheckWX is a tool to help pilots better visualize weather data.  It is not intended as a substitute for an official pre-flight weather briefing.

15:21:16 UTC

KHIF METAR
Hill AFB Airport
Ogden, Utah, USA
Current

23 mins ago

KHIF 261458Z AUTO 11010G21KT 10SM FEW200 12/04 A2981 RMK AO2 SLP060 T01190036 55001
Observed
May-26 @ 14:58 UTC
Wind
  • 110° at 10 KTS
  • Gusting to 21 KTS
Visibility
10 SM
Flight Rules
VFR
Cloud Levels
  • Few at 20,000' AGL
Temperature
12°C / 54°F
Dewpoint
C / 39°F
Humidity
58%
Altimeter
29.81" Hg
Pressure
1009.52 hPa
Previous

1 hour ago

KHIF 261358Z AUTO 11017G22KT 10SM CLR 10/04 A2981 RMK AO2 PK WND 10027/12 SLP063 T01020035
Observed
May-26 @ 13:58 UTC
Wind
  • 110° at 17 KTS
  • Gusting to 22 KTS
Visibility
10 SM
Flight Rules
VFR
Cloud Levels
  • Clear skies
Temperature
10°C / 50°F
Dewpoint
C / 39°F
Humidity
67%
Altimeter
29.81" Hg
Pressure
1009.52 hPa
Previous

2 hours ago

KHIF 261258Z AUTO 11018G24KT 10SM FEW110 09/03 A2981 RMK AO2 SLP060 T00870033
Observed
May-26 @ 12:58 UTC
Wind
  • 110° at 18 KTS
  • Gusting to 24 KTS
Visibility
10 SM
Flight Rules
VFR
Cloud Levels
  • Few at 11,000' AGL
Temperature
C / 48°F
Dewpoint
C / 37°F
Humidity
66%
Altimeter
29.81" Hg
Pressure
1009.52 hPa